Time;durP1;ratioP1;P1;durP2;ratioP2;P2;SDS_P1;SDS_P2;PMS_P1;PMS_P2;Temp;Humidity;BMP_temperature;BMP_pressure;BME280_temperature;BME280_humidity;BME280_pressure;Samples;Min_cycle;Max_cycle;Signal;HPM_P1;HPM_P2
2023/05/18 00:00:01;;;;;;;4.70;2.40;;;;;;;20.82;57.08;101446.10;110453;1268;22310;-50
2023/05/18 00:02:30;;;;;;;2.80;1.60;;;;;;;20.81;57.22;101444.73;110458;1269;22452;-50
2023/05/18 00:05:00;;;;;;;2.60;1.50;;;;;;;20.81;57.16;101444.75;110143;1275;22831;-49
2023/05/18 00:07:32;;;;;;;4.10;1.50;;;;;;;20.76;56.89;101439.88;110531;1268;22271;-50
2023/05/18 00:10:00;;;;;;;2.50;1.70;;;;;;;20.78;56.50;101435.92;110298;1274;22209;-53
2023/05/18 00:12:27;;;;;;;3.30;1.30;;;;;;;20.77;56.20;101431.70;110488;1268;22455;-49
2023/05/18 00:14:54;;;;;;;2.70;1.50;;;;;;;20.76;56.12;101424.58;110508;1268;22416;-49
2023/05/18 00:17:22;;;;;;;3.40;1.50;;;;;;;20.74;56.28;101418.64;110468;1275;22655;-50
2023/05/18 00:19:49;;;;;;;2.60;1.40;;;;;;;20.75;56.29;101419.69;110498;1269;22274;-49
2023/05/18 00:22:19;;;;;;;2.80;1.50;;;;;;;20.74;56.23;101416.39;110506;1268;22316;-50
2023/05/18 00:24:46;;;;;;;1.90;1.20;;;;;;;20.73;56.07;101415.88;110138;1275;22369;-50
2023/05/18 00:27:13;;;;;;;4.70;1.50;;;;;;;20.72;56.06;101413.33;110506;1268;22385;-49
2023/05/18 00:29:41;;;;;;;4.30;1.40;;;;;;;20.69;55.89;101411.34;110498;1275;22151;-49
2023/05/18 00:32:08;;;;;;;4.60;1.50;;;;;;;20.68;55.71;101408.58;110486;1268;22380;-49
2023/05/18 00:34:36;;;;;;;4.40;1.60;;;;;;;20.67;55.55;101410.60;108946;1268;1002839;-49
2023/05/18 00:37:03;;;;;;;3.30;1.30;;;;;;;20.65;55.26;101408.74;110228;1275;22128;-50
2023/05/18 00:39:30;;;;;;;2.10;1.30;;;;;;;20.64;55.22;101411.14;110489;1275;22407;-49
2023/05/18 00:41:57;;;;;;;2.00;1.60;;;;;;;20.63;55.36;101409.06;110421;1270;22804;-49
2023/05/18 00:44:24;;;;;;;1.60;1.20;;;;;;;20.62;55.43;101414.55;110471;1268;23044;-49
2023/05/18 00:46:51;;;;;;;2.30;1.30;;;;;;;20.62;55.57;101410.52;110491;1275;22415;-49
2023/05/18 00:49:18;;;;;;;2.80;1.50;;;;;;;20.60;55.59;101410.42;110489;1275;22431;-49
2023/05/18 00:51:45;;;;;;;2.60;1.50;;;;;;;20.58;55.49;101407.52;110490;1268;22366;-49
2023/05/18 00:54:12;;;;;;;3.80;1.70;;;;;;;20.58;55.48;101405.79;110493;1269;22351;-50
2023/05/18 00:56:45;;;;;;;4.10;1.50;;;;;;;20.57;55.46;101399.67;110291;1271;22314;-49
2023/05/18 00:59:12;;;;;;;3.30;1.60;;;;;;;20.55;55.31;101395.89;110509;1268;22127;-49
2023/05/18 01:01:45;;;;;;;4.70;1.70;;;;;;;20.55;55.24;101395.71;110441;1275;22218;-50
2023/05/18 01:04:15;;;;;;;2.10;1.40;;;;;;;20.54;55.38;101401.60;110527;1268;22189;-49
2023/05/18 01:06:42;;;;;;;2.30;1.70;;;;;;;20.55;55.50;101402.24;110525;1268;22143;-49
2023/05/18 01:09:10;;;;;;;1.80;1.50;;;;;;;20.55;55.66;101401.70;110543;1268;22930;-50
2023/05/18 01:11:56;;;;;;;3.10;1.50;;;;;;;20.55;56.03;101398.34;110322;1275;22395;-50
2023/05/18 01:14:28;;;;;;;2.30;1.60;;;;;;;20.55;56.21;101400.66;110343;1270;22364;-50
2023/05/18 01:17:02;;;;;;;3.30;1.70;;;;;;;20.54;56.27;101398.59;110496;1275;22882;-49
2023/05/18 01:19:41;;;;;;;4.30;1.90;;;;;;;20.53;56.32;101400.05;110451;1275;22462;-49
2023/05/18 01:22:33;;;;;;;3.10;1.60;;;;;;;20.53;56.26;101404.84;110437;1273;22991;-50
2023/05/18 01:25:13;;;;;;;3.80;2.70;;;;;;;20.52;56.33;101408.03;110498;1268;22400;-49
2023/05/18 01:27:41;;;;;;;3.40;2.50;;;;;;;20.52;56.22;101408.05;110142;1273;22447;-49
2023/05/18 01:30:08;;;;;;;5.30;2.70;;;;;;;20.52;55.79;101407.88;109827;1277;23152;-49
2023/05/18 01:32:39;;;;;;;4.50;3.20;;;;;;;20.51;55.39;101408.10;110103;1271;23292;-50
2023/05/18 01:35:07;;;;;;;3.90;2.90;;;;;;;20.51;55.33;101409.51;110111;1270;22429;-49
2023/05/18 01:37:34;;;;;;;3.70;3.00;;;;;;;20.52;55.13;101405.94;110175;1278;22145;-49
2023/05/18 01:40:04;;;;;;;3.60;2.70;;;;;;;20.53;55.44;101408.84;110162;1274;22161;-49
2023/05/18 01:42:33;;;;;;;8.00;3.20;;;;;;;20.55;55.68;101410.90;110118;1274;22443;-49
2023/05/18 01:45:07;;;;;;;2.70;2.50;;;;;;;20.55;55.73;101414.21;109977;1277;22934;-49
2023/05/18 01:47:34;;;;;;;3.10;2.60;;;;;;;20.55;55.60;101414.95;110163;1279;22208;-49
2023/05/18 01:50:08;;;;;;;2.60;2.40;;;;;;;20.54;55.62;101415.17;110157;1271;22407;-49
2023/05/18 01:52:39;;;;;;;4.00;2.50;;;;;;;20.52;55.78;101417.21;110163;1278;22416;-50
2023/05/18 01:55:06;;;;;;;5.10;2.60;;;;;;;20.50;56.02;101419.08;110069;1276;22304;-49
2023/05/18 01:57:34;;;;;;;6.00;2.70;;;;;;;20.49;56.13;101421.77;110064;1274;22165;-49
2023/05/18 02:00:03;;;;;;;4.10;2.60;;;;;;;20.47;55.98;101420.10;110205;1273;22257;-49
2023/05/18 02:02:41;;;;;;;4.10;2.40;;;;;;;20.42;55.91;101420.40;110509;1275;22247;-49
2023/05/18 02:05:11;;;;;;;4.10;2.50;;;;;;;20.38;55.91;101420.77;110186;1276;22124;-49
2023/05/18 02:07:38;;;;;;;3.40;2.30;;;;;;;20.37;56.00;101420.30;110593;1270;22347;-50
2023/05/18 02:10:07;;;;;;;3.70;2.50;;;;;;;20.34;55.84;101418.30;110072;1272;22290;-49
2023/05/18 02:12:35;;;;;;;4.30;2.80;;;;;;;20.31;55.79;101414.27;110053;1278;22216;-49
2023/05/18 02:15:04;;;;;;;2.90;2.10;;;;;;;20.29;55.78;101418.95;110192;1274;22171;-49
2023/05/18 02:17:32;;;;;;;4.40;2.30;;;;;;;20.27;55.88;101417.27;110159;1276;22309;-49
2023/05/18 02:19:59;;;;;;;4.40;2.70;;;;;;;20.24;55.97;101423.25;110201;1271;23125;-49
2023/05/18 02:22:26;;;;;;;6.10;3.10;;;;;;;20.22;55.82;101424.75;110205;1278;22328;-49
2023/05/18 02:24:53;;;;;;;3.40;2.90;;;;;;;20.20;55.66;101426.30;109451;1271;1002505;-50
2023/05/18 02:27:20;;;;;;;4.50;3.30;;;;;;;20.18;55.48;101427.41;110044;1276;23248;-49
2023/05/18 02:29:47;;;;;;;6.10;3.20;;;;;;;20.17;55.59;101423.08;110227;1273;22384;-49
2023/05/18 02:32:15;;;;;;;3.30;2.70;;;;;;;20.16;55.59;101419.74;109990;1276;22406;-50
2023/05/18 02:34:45;;;;;;;8.70;3.80;;;;;;;20.14;55.40;101420.38;110267;1269;22303;-50
2023/05/18 02:37:12;;;;;;;7.00;3.60;;;;;;;20.12;55.36;101423.65;110229;1277;22355;-49
2023/05/18 02:39:40;;;;;;;6.80;3.60;;;;;;;20.11;55.14;101419.86;110082;1277;22173;-49
2023/05/18 02:42:07;;;;;;;4.90;3.90;;;;;;;20.08;55.05;101425.84;110199;1274;22119;-49
2023/05/18 02:44:34;;;;;;;5.30;3.90;;;;;;;20.04;55.07;101430.95;110103;1275;22343;-50
2023/05/18 02:47:01;;;;;;;7.90;4.50;;;;;;;20.02;55.05;101433.52;110579;1268;22478;-49
2023/05/18 02:49:28;;;;;;;7.20;4.10;;;;;;;20.02;54.82;101436.70;110537;1274;23048;-49
2023/05/18 02:51:55;;;;;;;7.70;4.30;;;;;;;20.01;54.68;101433.54;110589;1269;22876;-49
2023/05/18 02:54:22;;;;;;;7.30;5.10;;;;;;;20.00;54.43;101434.31;110597;1269;22300;-50
2023/05/18 02:56:49;;;;;;;7.80;4.90;;;;;;;19.99;54.15;101435.27;110189;1275;23114;-50
2023/05/18 02:59:30;;;;;;;8.00;5.50;;;;;;;19.98;53.95;101442.34;110512;1270;22159;-49
2023/05/18 03:01:57;;;;;;;7.20;5.20;;;;;;;19.98;53.52;101433.20;110606;1268;22408;-49
2023/05/18 03:04:24;;;;;;;7.10;5.70;;;;;;;19.98;53.51;101437.59;110317;1275;22789;-49
2023/05/18 03:06:56;;;;;;;10.70;5.60;;;;;;;19.98;53.43;101438.14;110404;1275;22371;-49
2023/05/18 03:09:23;;;;;;;6.90;5.50;;;;;;;19.97;53.32;101437.27;110271;1271;22348;-49
2023/05/18 03:11:52;;;;;;;7.60;5.30;;;;;;;19.97;53.16;101441.17;110253;1271;23050;-49
2023/05/18 03:14:19;;;;;;;6.70;5.30;;;;;;;19.97;52.83;101442.77;110374;1272;23165;-50
2023/05/18 03:16:46;;;;;;;6.50;5.50;;;;;;;19.98;52.81;101442.55;110538;1268;22280;-49
2023/05/18 03:19:14;;;;;;;7.30;5.60;;;;;;;19.97;52.71;101445.19;110557;1270;22132;-49
2023/05/18 03:21:42;;;;;;;7.40;5.40;;;;;;;19.98;52.70;101447.64;110586;1269;22151;-49
2023/05/18 03:24:13;;;;;;;6.40;5.40;;;;;;;19.98;52.67;101452.38;110262;1276;23182;-49
2023/05/18 03:26:43;;;;;;;7.00;5.30;;;;;;;19.99;52.78;101451.27;110305;1271;22115;-49
2023/05/18 03:29:12;;;;;;;5.40;4.70;;;;;;;20.00;52.65;101451.07;110254;1274;22712;-49
2023/05/18 03:31:39;;;;;;;5.70;4.20;;;;;;;20.03;52.59;101448.23;110266;1272;22916;-49
2023/05/18 03:34:07;;;;;;;6.20;4.40;;;;;;;20.14;52.43;101452.81;110285;1271;22109;-50
2023/05/18 03:36:34;;;;;;;6.20;4.70;;;;;;;20.32;52.21;101450.31;110106;1275;22102;-49
2023/05/18 03:39:01;;;;;;;8.80;4.40;;;;;;;20.53;51.70;101442.91;110579;1275;22377;-49
2023/05/18 03:41:28;;;;;;;9.60;4.70;;;;;;;20.64;51.17;101444.42;110323;1272;22680;-49
2023/05/18 03:43:56;;;;;;;6.10;4.10;;;;;;;20.70;50.91;101435.84;110573;1273;22122;-49
2023/05/18 03:46:23;;;;;;;7.30;4.90;;;;;;;20.72;50.50;101436.08;110486;1275;22388;-50
2023/05/18 03:48:52;;;;;;;4.80;4.00;;;;;;;20.75;50.49;101435.36;110580;1275;22438;-49
2023/05/18 03:51:23;;;;;;;6.80;4.50;;;;;;;20.83;50.29;101430.52;110521;1269;22188;-50
2023/05/18 03:53:50;;;;;;;7.70;4.80;;;;;;;20.94;49.91;101429.92;110526;1274;22127;-49
2023/05/18 03:56:17;;;;;;;6.60;3.80;;;;;;;20.99;49.61;101438.48;110546;1269;22129;-49
2023/05/18 03:58:44;;;;;;;5.20;3.70;;;;;;;20.99;49.59;101443.21;110566;1275;22285;-49
2023/05/18 04:01:11;;;;;;;6.30;4.00;;;;;;;20.94;49.55;101447.90;110534;1269;22178;-49
2023/05/18 04:03:39;;;;;;;6.50;3.50;;;;;;;20.91;49.45;101456.74;110152;1275;22231;-49
2023/05/18 04:06:09;;;;;;;5.90;3.80;;;;;;;20.87;49.42;101459.95;110155;1275;22387;-49
2023/05/18 04:08:36;;;;;;;4.00;3.50;;;;;;;20.85;49.56;101464.65;110270;1274;22292;-49
2023/05/18 04:11:03;;;;;;;5.60;3.70;;;;;;;20.83;49.66;101464.77;110606;1275;22374;-50
2023/05/18 04:13:30;;;;;;;6.80;4.60;;;;;;;20.81;49.65;101464.83;110551;1275;22179;-50
2023/05/18 04:15:57;;;;;;;6.10;3.90;;;;;;;20.80;49.61;101466.29;110291;1271;22338;-49
2023/05/18 04:18:28;;;;;;;4.90;3.70;;;;;;;20.80;49.54;101466.65;110556;1268;22294;-49
2023/05/18 04:20:56;;;;;;;4.90;3.70;;;;;;;20.80;49.48;101474.23;110227;1269;22374;-49
2023/05/18 04:23:23;;;;;;;6.10;3.70;;;;;;;20.80;49.59;101471.27;110466;1275;22912;-49
2023/05/18 04:25:50;;;;;;;5.70;4.30;;;;;;;20.80;49.79;101479.89;110266;1275;22119;-49
2023/05/18 04:28:18;;;;;;;4.80;3.70;;;;;;;20.80;49.67;101476.37;110433;1270;22272;-49
2023/05/18 04:30:46;;;;;;;7.40;3.70;;;;;;;20.80;49.69;101475.48;110327;1272;22181;-49
2023/05/18 04:33:14;;;;;;;4.80;3.50;;;;;;;20.80;49.75;101480.05;110562;1272;22351;-49
2023/05/18 04:35:43;;;;;;;8.60;4.10;;;;;;;20.81;49.78;101485.44;110300;1274;23082;-49
2023/05/18 04:38:11;;;;;;;8.20;3.80;;;;;;;20.83;50.06;101483.45;110177;1269;22203;-49
2023/05/18 04:40:41;;;;;;;5.60;3.90;;;;;;;20.84;50.23;101485.52;110537;1275;22419;-50
2023/05/18 04:43:10;;;;;;;4.40;3.50;;;;;;;20.84;50.31;101483.52;110271;1276;22212;-49
2023/05/18 04:45:37;;;;;;;5.70;3.50;;;;;;;20.86;50.09;101485.38;110290;1270;22406;-49
2023/05/18 04:48:05;;;;;;;5.60;3.50;;;;;;;20.89;49.57;101483.65;110408;1273;22134;-49
2023/05/18 04:50:32;;;;;;;4.90;3.70;;;;;;;20.92;49.27;101490.16;110563;1275;23260;-49
2023/05/18 04:53:01;;;;;;;6.50;3.50;;;;;;;20.97;49.29;101489.38;109782;1275;1002762;-50
2023/05/18 04:55:29;;;;;;;8.00;3.50;;;;;;;21.01;48.63;101490.03;110154;1269;22343;-49
2023/05/18 04:58:02;;;;;;;4.10;3.20;;;;;;;21.05;47.97;101489.14;110063;1274;23066;-50
2023/05/18 05:00:29;;;;;;;5.80;2.90;;;;;;;21.08;47.72;101489.92;110264;1276;22400;-49
2023/05/18 05:02:57;;;;;;;4.50;3.00;;;;;;;21.11;47.58;101493.80;110288;1271;22182;-49
2023/05/18 05:05:25;;;;;;;4.00;3.40;;;;;;;21.15;47.39;101493.42;110200;1271;22314;-49
2023/05/18 05:07:53;;;;;;;4.90;3.30;;;;;;;21.18;47.71;101492.50;110325;1270;22259;-49
2023/05/18 05:10:20;;;;;;;3.50;3.10;;;;;;;21.28;47.79;101488.11;110144;1269;22398;-49
2023/05/18 05:12:48;;;;;;;4.60;3.50;;;;;;;21.43;47.64;101484.45;110193;1277;22167;-50
2023/05/18 05:15:16;;;;;;;6.10;3.10;;;;;;;21.65;47.10;101487.08;110187;1277;22968;-50
2023/05/18 05:17:45;;;;;;;6.00;3.40;;;;;;;21.91;46.28;101485.78;110147;1270;22193;-49
2023/05/18 05:20:12;;;;;;;4.70;3.30;;;;;;;22.19;45.56;101489.26;110051;1269;22162;-49
2023/05/18 05:22:40;;;;;;;3.90;2.90;;;;;;;22.46;44.70;101488.52;110184;1276;22422;-49
2023/05/18 05:25:10;;;;;;;6.20;3.80;;;;;;;22.71;43.66;101489.34;110007;1277;22276;-50
2023/05/18 05:27:37;;;;;;;4.60;3.10;;;;;;;22.94;43.17;101492.05;110362;1276;22220;-50
2023/05/18 05:30:04;;;;;;;7.20;3.20;;;;;;;23.19;42.49;101492.07;110292;1271;22389;-50
2023/05/18 05:32:34;;;;;;;5.40;2.90;;;;;;;23.42;41.78;101492.86;110142;1274;22376;-49
2023/05/18 05:35:02;;;;;;;5.60;3.20;;;;;;;23.61;41.47;101492.79;110515;1268;22277;-50
2023/05/18 05:37:30;;;;;;;5.60;3.10;;;;;;;23.78;40.62;101495.48;110279;1269;22346;-50
2023/05/18 05:39:58;;;;;;;4.50;3.00;;;;;;;23.96;40.12;101498.20;110288;1273;22418;-50
2023/05/18 05:42:26;;;;;;;5.90;2.80;;;;;;;24.17;39.76;101491.71;110256;1275;22468;-49
2023/05/18 05:44:53;;;;;;;4.90;2.80;;;;;;;24.41;39.36;101489.77;110309;1270;22290;-49
2023/05/18 05:47:21;;;;;;;3.30;2.90;;;;;;;24.59;38.84;101486.03;110185;1275;22915;-50
2023/05/18 05:49:48;;;;;;;6.40;3.80;;;;;;;24.76;38.84;101482.52;110246;1276;23130;-50
2023/05/18 05:52:15;;;;;;;5.50;3.50;;;;;;;24.96;38.50;101478.97;110245;1275;23092;-49
2023/05/18 05:54:42;;;;;;;5.70;3.80;;;;;;;25.14;38.09;101480.00;110546;1268;22120;-49
2023/05/18 05:57:10;;;;;;;3.60;2.90;;;;;;;25.34;37.75;101480.17;110268;1270;22206;-50
2023/05/18 05:59:37;;;;;;;6.50;2.90;;;;;;;25.53;36.71;101482.16;110302;1273;22343;-50
2023/05/18 06:02:04;;;;;;;5.10;2.80;;;;;;;25.63;35.89;101481.63;110112;1276;22792;-50
2023/05/18 06:04:31;;;;;;;5.10;3.00;;;;;;;25.68;35.34;101484.82;110279;1273;22135;-50
2023/05/18 06:07:00;;;;;;;4.20;2.90;;;;;;;25.70;34.90;101487.52;110391;1271;22267;-50
2023/05/18 06:09:27;;;;;;;4.40;3.00;;;;;;;25.72;34.91;101485.02;110488;1275;22975;-50
2023/05/18 06:11:55;;;;;;;4.20;2.60;;;;;;;25.80;34.82;101489.23;110337;1271;23276;-49
2023/05/18 06:14:23;;;;;;;5.50;2.80;;;;;;;25.89;35.00;101494.11;110315;1274;22123;-50
2023/05/18 06:16:50;;;;;;;4.10;3.20;;;;;;;25.90;35.18;101490.85;110313;1271;22241;-49
2023/05/18 06:19:17;;;;;;;5.20;2.90;;;;;;;25.84;35.61;101493.20;110562;1275;22206;-50
2023/05/18 06:21:45;;;;;;;3.90;2.80;;;;;;;25.82;36.01;101494.76;110511;1275;22400;-50
2023/05/18 06:24:12;;;;;;;4.80;2.70;;;;;;;25.88;36.24;101496.15;109391;1275;1002438;-50
2023/05/18 06:26:44;;;;;;;4.30;2.70;;;;;;;25.91;36.33;101491.84;110485;1268;22360;-50
2023/05/18 06:29:29;;;;;;;6.30;2.50;;;;;;;25.81;36.37;101497.66;110468;1274;22364;-50
2023/05/18 06:32:05;;;;;;;3.90;2.80;;;;;;;25.67;36.71;101498.77;110269;1268;23003;-50
2023/05/18 06:34:36;;;;;;;4.80;2.90;;;;;;;25.59;37.28;101498.03;110530;1275;22270;-50
2023/05/18 06:37:04;;;;;;;6.80;3.50;;;;;;;25.61;37.24;101494.20;110143;1275;22194;-50
2023/05/18 06:39:31;;;;;;;5.80;3.20;;;;;;;25.55;37.38;101499.28;110490;1268;22440;-50
2023/05/18 06:41:58;;;;;;;6.90;2.80;;;;;;;25.51;37.66;101498.31;110497;1275;22131;-50
2023/05/18 06:44:31;;;;;;;4.30;2.50;;;;;;;25.52;37.74;101500.73;110339;1271;22290;-50
2023/05/18 06:47:04;;;;;;;4.70;2.60;;;;;;;25.55;37.87;101504.41;110460;1269;22679;-50
2023/05/18 06:49:32;;;;;;;4.20;2.30;;;;;;;25.63;37.84;101503.80;110503;1276;22287;-50
2023/05/18 06:51:59;;;;;;;4.10;2.80;;;;;;;25.62;37.80;101507.98;110360;1269;23080;-50
2023/05/18 06:54:28;;;;;;;7.40;2.40;;;;;;;25.56;37.71;101504.31;110588;1269;23001;-49
2023/05/18 06:56:55;;;;;;;4.50;2.50;;;;;;;25.49;38.22;101504.49;110204;1269;23070;-50
2023/05/18 06:59:22;;;;;;;3.40;2.40;;;;;;;25.47;38.49;101503.17;110090;1276;23001;-50
2023/05/18 07:01:49;;;;;;;5.00;3.00;;;;;;;25.51;38.25;101509.28;109773;1275;1002966;-50
2023/05/18 07:04:18;;;;;;;3.00;2.40;;;;;;;25.55;38.39;101507.80;110381;1274;22320;-49
2023/05/18 07:06:45;;;;;;;5.70;2.80;;;;;;;25.60;38.31;101500.80;110587;1267;22140;-49
2023/05/18 07:10:52;;;;;;;3.10;2.40;;;;;;;24.88;39.95;101499.36;105132;1289;559895;-47
2023/05/18 07:13:19;;;;;;;3.00;2.40;;;;;;;25.61;38.48;101500.08;106514;1282;25495;-47
2023/05/18 07:15:47;;;;;;;3.20;2.60;;;;;;;25.75;37.82;101496.55;106114;1283;26592;-48
2023/05/18 07:18:14;;;;;;;7.30;2.50;;;;;;;25.76;37.29;101499.33;106598;1282;25494;-48
2023/05/18 07:20:42;;;;;;;2.70;2.50;;;;;;;25.69;37.42;101500.16;106319;1282;22591;-49
2023/05/18 07:23:09;;;;;;;3.40;2.50;;;;;;;25.63;37.72;101500.28;106075;1276;226635;-49
2023/05/18 07:25:36;;;;;;;5.20;2.30;;;;;;;25.61;37.40;101491.85;106512;1279;22550;-49
2023/05/18 07:28:03;;;;;;;5.10;2.80;;;;;;;25.57;37.33;101500.03;106315;1280;25338;-49
2023/05/18 07:30:31;;;;;;;3.40;2.40;;;;;;;25.52;37.43;101501.99;106262;1279;24267;-49
2023/05/18 07:32:58;;;;;;;7.70;2.20;;;;;;;25.49;37.61;101500.42;105632;1285;1003031;-48
2023/05/18 07:35:26;;;;;;;6.00;2.50;;;;;;;25.43;37.55;101506.00;106466;1279;25392;-49
2023/05/18 07:37:53;;;;;;;5.10;2.90;;;;;;;25.29;37.81;101505.21;106386;1279;25398;-49
2023/05/18 07:40:21;;;;;;;4.20;2.40;;;;;;;25.15;38.09;101506.24;106387;1285;22538;-49
2023/05/18 07:46:12;;;;;;;6.50;3.10;;;;;;;24.99;38.85;101510.92;103619;1297;544820;-49
2023/05/18 07:48:39;;;;;;;4.40;2.90;;;;;;;24.87;38.54;101508.20;106045;1283;22554;-49
2023/05/18 07:51:07;;;;;;;8.60;3.40;;;;;;;24.76;38.87;101510.80;105962;1289;22542;-49
2023/05/18 07:53:34;;;;;;;6.00;2.90;;;;;;;24.65;38.98;101515.20;106011;1284;24253;-48
2023/05/18 07:56:04;;;;;;;4.90;3.00;;;;;;;24.55;38.87;101516.44;104592;1281;1003837;-47
2023/05/18 07:58:31;;;;;;;4.10;3.50;;;;;;;24.45;39.08;101519.96;105800;1285;24008;-49
2023/05/18 08:00:58;;;;;;;5.40;3.10;;;;;;;24.38;39.10;101520.66;105922;1280;234123;-48
2023/05/18 08:03:25;;;;;;;5.20;2.80;;;;;;;24.29;39.66;101521.05;106488;1272;22517;-49
2023/05/18 08:05:53;;;;;;;8.30;3.10;;;;;;;24.30;40.11;101524.56;106609;1276;22531;-49
2023/05/18 08:08:20;;;;;;;5.60;2.90;;;;;;;24.36;40.25;101521.48;106492;1272;22524;-50
2023/05/18 08:10:48;;;;;;;6.70;3.20;;;;;;;24.37;39.70;101522.64;106683;1258;22549;-50
2023/05/18 08:13:15;;;;;;;12.30;2.80;;;;;;;24.35;39.49;101522.43;106695;1277;22530;-49
2023/05/18 08:15:42;;;;;;;6.50;3.10;;;;;;;24.33;39.54;101518.70;107033;1273;22578;-49
2023/05/18 08:18:09;;;;;;;6.40;3.60;;;;;;;24.32;39.57;101520.88;106427;1273;22623;-49
2023/05/18 08:20:37;;;;;;;5.80;3.00;;;;;;;24.34;39.53;101521.42;106290;1280;22550;-48
2023/05/18 08:23:05;;;;;;;5.60;3.40;;;;;;;24.39;39.31;101515.06;106717;1274;22530;-51
2023/05/18 08:25:32;;;;;;;5.80;3.00;;;;;;;24.41;38.90;101520.95;106774;1273;25346;-49
2023/05/18 08:27:59;;;;;;;5.60;3.20;;;;;;;24.40;39.00;101522.09;106752;1273;23314;-45
2023/05/18 08:30:26;;;;;;;4.70;3.40;;;;;;;24.41;38.89;101515.66;106639;1267;22529;-49
2023/05/18 08:32:54;;;;;;;6.20;3.10;;;;;;;24.40;38.87;101513.61;106170;1279;22776;-53
2023/05/18 08:35:21;;;;;;;5.30;3.30;;;;;;;24.38;38.91;101515.84;106523;1273;22538;-48
2023/05/18 08:37:49;;;;;;;6.10;3.70;;;;;;;24.36;39.11;101517.59;106740;1275;22639;-50
2023/05/18 08:40:16;;;;;;;6.00;3.80;;;;;;;24.37;39.67;101518.91;106871;1270;22763;-50
2023/05/18 08:43:17;;;;;;;8.60;3.80;;;;;;;24.37;39.88;101519.81;106745;1273;22536;-46
2023/05/18 08:45:47;;;;;;;5.20;3.30;;;;;;;24.46;39.48;101518.99;105777;1276;1003490;-47
2023/05/18 08:48:15;;;;;;;3.50;3.10;;;;;;;24.51;39.78;101517.40;106187;1273;1003704;-48
2023/05/18 08:50:42;;;;;;;8.10;3.60;;;;;;;24.58;39.70;101517.13;106602;1267;22535;-50
2023/05/18 08:53:10;;;;;;;4.90;3.20;;;;;;;24.65;39.66;101518.91;106312;1267;22914;-51
2023/05/18 08:55:38;;;;;;;5.40;3.50;;;;;;;24.71;39.83;101520.29;107035;1273;22682;-47
2023/05/18 08:58:06;;;;;;;4.20;3.80;;;;;;;24.78;39.55;101518.08;106096;1283;24318;-48
2023/05/18 09:00:34;;;;;;;5.00;3.60;;;;;;;24.87;39.42;101514.44;106020;1273;22833;-48
2023/05/18 09:03:03;;;;;;;5.10;3.40;;;;;;;24.96;39.14;101508.82;106306;1273;22590;-48
2023/05/18 09:05:30;;;;;;;5.80;3.90;;;;;;;25.02;38.99;101507.48;107106;1272;22634;-45
2023/05/18 09:07:58;;;;;;;6.20;3.90;;;;;;;25.11;38.58;101513.05;106391;1273;22664;-49
2023/05/18 09:10:25;;;;;;;6.80;3.70;;;;;;;25.18;38.53;101510.09;106261;1265;22547;-50
2023/05/18 09:12:52;;;;;;;7.40;3.70;;;;;;;25.24;37.98;101505.20;106396;1263;22885;-48
2023/05/18 09:15:20;;;;;;;6.40;3.60;;;;;;;25.28;37.43;101503.16;106487;1273;22540;-51
2023/05/18 09:17:47;;;;;;;5.60;4.00;;;;;;;25.26;37.54;101502.77;106447;1274;22533;-51
2023/05/18 09:20:16;;;;;;;7.10;3.90;;;;;;;25.24;37.47;101502.73;106169;1279;24338;-47
2023/05/18 09:22:44;;;;;;;5.60;3.70;;;;;;;25.23;37.27;101499.95;106381;1273;22649;-47
2023/05/18 09:25:11;;;;;;;6.50;4.70;;;;;;;25.23;36.93;101499.27;106455;1273;24265;-49
2023/05/18 09:27:38;;;;;;;7.20;4.10;;;;;;;25.24;37.20;101498.29;106750;1271;25227;-47
2023/05/18 09:30:09;;;;;;;6.30;4.40;;;;;;;25.28;36.51;101498.33;107192;1269;22523;-48
2023/05/18 09:32:36;;;;;;;6.90;3.50;;;;;;;25.33;36.33;101500.82;107236;1270;22514;-49
2023/05/18 09:35:05;;;;;;;6.30;4.00;;;;;;;25.38;36.09;101499.55;106794;1276;22646;-53
2023/05/18 09:37:32;;;;;;;6.80;4.20;;;;;;;25.46;35.76;101495.69;106854;1270;22659;-48
2023/05/18 09:40:04;;;;;;;5.90;3.70;;;;;;;25.52;35.35;101496.84;107078;1269;24484;-48
2023/05/18 09:42:42;;;;;;;5.70;4.30;;;;;;;25.56;35.59;101496.19;106882;1269;25385;-48
2023/05/18 09:45:22;;;;;;;9.10;4.10;;;;;;;25.63;35.67;101490.67;107104;1269;24353;-50
2023/05/18 09:47:50;;;;;;;4.30;3.80;;;;;;;25.71;35.55;101487.95;106996;1270;22531;-49
2023/05/18 09:50:21;;;;;;;6.90;4.50;;;;;;;25.76;35.36;101486.83;107009;1264;22530;-47
2023/05/18 09:52:48;;;;;;;6.20;4.50;;;;;;;25.81;34.96;101485.19;106950;1254;24393;-47
2023/05/18 09:55:17;;;;;;;5.70;4.30;;;;;;;25.85;34.53;101486.04;106954;1273;25496;-47
2023/05/18 09:57:50;;;;;;;7.60;4.20;;;;;;;25.89;34.09;101482.75;107107;1269;24262;-47
2023/05/18 10:00:18;;;;;;;9.40;4.40;;;;;;;25.92;34.01;101483.94;107160;1260;22529;-47
2023/05/18 10:02:50;;;;;;;6.30;4.20;;;;;;;25.95;34.00;101479.12;106860;1269;22524;-49
2023/05/18 10:05:33;;;;;;;6.60;4.30;;;;;;;25.99;33.56;101480.73;106914;1270;25274;-46
2023/05/18 10:08:02;;;;;;;5.50;4.90;;;;;;;26.05;33.32;101478.13;106998;1268;22534;-49
2023/05/18 10:10:29;;;;;;;4.80;4.40;;;;;;;26.11;32.78;101477.00;106026;1270;1003434;-48
2023/05/18 10:12:57;;;;;;;5.10;4.50;;;;;;;26.14;32.53;101474.06;106977;1270;22527;-48
2023/05/18 10:15:25;;;;;;;6.20;4.50;;;;;;;26.17;32.48;101466.90;107016;1269;22569;-46
2023/05/18 10:17:55;;;;;;;5.00;4.30;;;;;;;26.22;32.21;101464.27;106913;1269;25413;-48
2023/05/18 10:20:26;;;;;;;8.90;4.50;;;;;;;26.28;31.99;101461.14;106751;1276;25367;-48
2023/05/18 10:22:54;;;;;;;;;;;;;;;26.35;31.67;101457.19;106898;1268;22544;-49
2023/05/18 10:25:22;;;;;;;5.80;4.70;;;;;;;26.40;31.63;101453.42;107242;1270;22537;-48
2023/05/18 10:27:50;;;;;;;7.90;4.60;;;;;;;26.40;31.63;101449.48;106848;1261;22783;-49
2023/05/18 10:30:17;;;;;;;6.10;4.40;;;;;;;26.37;31.17;101448.31;106879;1269;24391;-47
2023/05/18 10:32:45;;;;;;;5.40;4.50;;;;;;;26.32;31.39;101447.30;106984;1270;22585;-47
2023/05/18 10:35:13;;;;;;;6.50;4.90;;;;;;;26.33;31.93;101448.66;106900;1267;22523;-49
2023/05/18 10:37:42;;;;;;;5.00;4.50;;;;;;;26.37;31.71;101448.46;106746;1276;22531;-46
2023/05/18 10:40:10;;;;;;;6.60;5.00;;;;;;;26.43;31.93;101448.04;106670;1272;25398;-48
2023/05/18 10:42:55;;;;;;;7.10;4.70;;;;;;;26.52;32.03;101448.35;103762;1297;544973;-48
2023/05/18 10:45:23;;;;;;;6.90;5.50;;;;;;;26.59;32.01;101448.02;106657;1281;25282;-50
2023/05/18 10:47:53;;;;;;;8.00;5.90;;;;;;;26.65;31.80;101444.13;106423;1281;22539;-51
2023/05/18 10:50:21;;;;;;;5.70;4.70;;;;;;;26.68;31.51;101443.88;106553;1279;22541;-50
2023/05/18 10:52:49;;;;;;;6.00;5.00;;;;;;;26.69;31.35;101441.19;106538;1273;22531;-50
2023/05/18 10:55:16;;;;;;;9.10;4.70;;;;;;;26.70;31.35;101436.99;106442;1278;22536;-47
2023/05/18 10:57:47;;;;;;;5.10;4.60;;;;;;;26.73;30.94;101434.27;106398;1267;246005;-47
2023/05/18 11:00:14;;;;;;;5.60;5.00;;;;;;;26.76;30.70;101434.77;106693;1273;22559;-52
2023/05/18 11:02:42;;;;;;;8.00;5.10;;;;;;;26.79;30.51;101431.33;106422;1278;22509;-48
2023/05/18 11:05:10;;;;;;;6.10;5.10;;;;;;;26.84;30.66;101434.46;106682;1278;25474;-47
2023/05/18 11:07:37;;;;;;;5.50;4.80;;;;;;;26.91;30.55;101430.02;106340;1279;25325;-48
2023/05/18 11:10:09;;;;;;;7.30;5.00;;;;;;;26.99;30.37;101433.24;106727;1273;25396;-49
2023/05/18 11:12:37;;;;;;;13.00;5.80;;;;;;;27.06;30.09;101430.38;106684;1278;25455;-47
2023/05/18 11:15:05;;;;;;;6.50;5.20;;;;;;;27.12;29.96;101426.37;106756;1276;25234;-51
2023/05/18 11:17:32;;;;;;;8.40;5.70;;;;;;;27.13;30.00;101422.52;106653;1277;22538;-48
2023/05/18 11:20:10;;;;;;;6.50;5.10;;;;;;;27.14;30.11;101421.36;106621;1277;22549;-45
2023/05/18 11:22:56;;;;;;;5.70;5.10;;;;;;;27.16;29.99;101416.23;107008;1264;22585;-49
2023/05/18 11:25:24;;;;;;;6.40;5.50;;;;;;;27.17;29.74;101414.71;106781;1274;22547;-50
2023/05/18 11:27:52;;;;;;;7.80;5.70;;;;;;;27.18;29.99;101416.42;106423;1278;24221;-49